Main page
METAR-TAF:

METAR-TAF

Airports :

Monmouth Executive Airport

Belmar / Farmingdale, New Jersey, United States

latitude: 40-11N, longitude: 074-08W, elevation: 157 ft

Current weather observation

The report was made 19 minutes ago, at 19:06 UTC
Wind 9 mph from the Southwest
Temperature 55°F
Humidity 94%
Pressure 29.97 in. Hg
Visibility: 10 miles
Scattered clouds at a height of 1200 ft
Scattered clouds at a height of 2000 ft
Overcast at a height of 8500 ft

METAR: KBLM 091906Z AUTO 22008KT 10SM SCT012 SCT020 OVC085 13/12 A2997 RMK AO2 RAE1858 P0000

Time: 14:25 (19:25 UTC)


TAF: missing

Weather observations and forecasts of more than 4000 airports (METAR and TAF reports).

The available stations are represented by yellow and red dots on the map.

Hover mouse over dot to see the name of the station.

Then click to see weather observations and forecasts.

To change the map : click on the green buttons with a black cross to zoom in, on the green button with a dash to zoom out, or on the green arrows for adjacent maps.


METAR-TAF: